Time;durP1;ratioP1;P1;durP2;ratioP2;P2;SDS_P1;SDS_P2;PMS_P1;PMS_P2;Temp;Humidity;BMP_temperature;BMP_pressure;BME280_temperature;BME280_humidity;BME280_pressure;Samples;Min_cycle;Max_cycle;Signal;HPM_P1;HPM_P2
2022/09/14 00:00:06;;;;;;;4.13;2.30;;;;;;;24.12;49.73;96547.31;5050745;28;20428;-72
2022/09/14 00:02:31;;;;;;;8.17;3.37;;;;;;;24.10;49.96;96546.75;5046093;28;20943;-70
2022/09/14 00:04:57;;;;;;;6.87;3.07;;;;;;;24.13;49.90;96557.75;5051483;28;20449;-71
2022/09/14 00:07:22;;;;;;;3.13;2.47;;;;;;;24.15;49.52;96562.84;5057837;28;20237;-70
2022/09/14 00:09:50;;;;;;;4.23;2.27;;;;;;;24.13;49.73;96567.66;5048415;28;20669;-70
2022/09/14 00:12:16;;;;;;;3.73;1.97;;;;;;;24.10;49.57;96554.78;5050739;28;20672;-70
2022/09/14 00:14:41;;;;;;;3.93;1.80;;;;;;;24.05;49.61;96542.16;5050709;28;20445;-71
2022/09/14 00:17:06;;;;;;;4.10;1.80;;;;;;;24.06;49.95;96547.28;5056344;28;20699;-70
2022/09/14 00:19:32;;;;;;;3.20;2.30;;;;;;;24.03;50.37;96529.06;5043777;28;20304;-70
2022/09/14 00:21:58;;;;;;;3.13;2.40;;;;;;;24.01;50.08;96527.66;5053149;28;20190;-70
2022/09/14 00:24:25;;;;;;;6.63;2.17;;;;;;;24.03;50.48;96522.88;5050696;28;20541;-69
2022/09/14 00:26:50;;;;;;;3.33;2.03;;;;;;;24.03;50.56;96510.31;5050195;28;20203;-70
2022/09/14 00:29:16;;;;;;;2.87;2.40;;;;;;;24.01;50.54;96504.41;5049787;28;20422;-70
2022/09/14 00:31:41;;;;;;;14.37;2.40;;;;;;;24.04;50.50;96501.22;5050928;28;20210;-70
2022/09/14 00:34:10;;;;;;;6.07;2.40;;;;;;;24.05;50.53;96510.88;5050748;28;20187;-71
2022/09/14 00:36:45;;;;;;;3.47;2.03;;;;;;;24.04;50.57;96501.22;5048903;28;20219;-70
2022/09/14 00:39:11;;;;;;;3.33;1.90;;;;;;;23.98;50.96;96491.53;5050752;28;20425;-72
2022/09/14 00:41:39;;;;;;;2.43;2.10;;;;;;;23.94;51.25;96495.78;5058870;28;20467;-71
2022/09/14 00:44:09;;;;;;;5.87;1.77;;;;;;;23.93;51.55;96496.84;5049205;28;20221;-72
2022/09/14 00:46:39;;;;;;;1.80;1.70;;;;;;;23.96;51.50;96490.97;5048868;28;21262;-70
2022/09/14 00:49:25;;;;;;;2.70;2.10;;;;;;;23.97;51.40;96489.13;5050431;28;20460;-70
2022/09/14 00:51:55;;;;;;;4.60;1.90;;;;;;;23.98;50.94;96486.19;5050784;28;20410;-70
2022/09/14 00:54:20;;;;;;;3.90;2.13;;;;;;;23.98;51.40;96470.13;5050246;28;20478;-70
2022/09/14 00:56:46;;;;;;;6.40;2.20;;;;;;;23.98;51.37;96453.28;5049753;28;20484;-71
2022/09/14 00:59:17;;;;;;;5.07;2.30;;;;;;;23.94;51.51;96450.28;5051576;28;20244;-71
2022/09/14 01:01:43;;;;;;;3.00;2.10;;;;;;;23.96;51.63;96450.84;5063208;28;20409;-71
2022/09/14 01:04:08;;;;;;;4.50;2.27;;;;;;;23.91;52.02;96453.47;5050016;28;20421;-71
2022/09/14 01:06:42;;;;;;;2.90;2.03;;;;;;;23.77;52.17;96458.44;5057887;28;20449;-70
2022/09/14 01:09:22;;;;;;;6.50;2.07;;;;;;;23.77;51.85;96451.22;5037870;28;20217;-70
2022/09/14 01:12:22;;;;;;;11.33;2.40;;;;;;;23.78;52.23;96431.44;5049905;28;20467;-70
2022/09/14 01:15:08;;;;;;;2.23;2.07;;;;;;;23.82;52.13;96433.63;5046000;28;20493;-70
2022/09/14 01:17:56;;;;;;;4.80;2.47;;;;;;;23.80;52.11;96430.38;5043715;28;20448;-70
2022/09/14 01:20:30;;;;;;;8.27;3.00;;;;;;;23.71;53.40;96478.19;5050152;28;20402;-70
2022/09/14 01:23:29;;;;;;;2.53;2.10;;;;;;;23.68;53.50;96574.97;5049136;28;20433;-71
2022/09/14 01:26:03;;;;;;;12.53;2.63;;;;;;;23.48;56.02;96595.09;5054350;28;20435;-70
2022/09/14 01:28:39;;;;;;;6.77;2.00;;;;;;;23.54;58.57;96550.50;5044884;28;20850;-71
2022/09/14 01:31:10;;;;;;;3.47;1.63;;;;;;;23.40;59.20;96537.53;5046819;28;20429;-71
2022/09/14 01:33:45;;;;;;;6.87;1.90;;;;;;;23.32;60.12;96527.25;5050922;28;20513;-71
2022/09/14 01:36:13;;;;;;;6.07;2.07;;;;;;;23.34;60.72;96524.38;5050667;28;20468;-71
2022/09/14 01:38:41;;;;;;;7.97;2.07;;;;;;;23.30;61.04;96526.72;5048369;28;20425;-69
2022/09/14 01:41:11;;;;;;;5.63;1.70;;;;;;;23.24;61.82;96533.06;5049568;28;20437;-70
2022/09/14 01:43:43;;;;;;;6.13;2.10;;;;;;;23.13;62.53;96530.25;5052592;28;20430;-71
2022/09/14 01:46:16;;;;;;;7.57;2.03;;;;;;;23.08;64.04;96537.41;5051491;28;20446;-72
2022/09/14 01:48:46;;;;;;;6.03;2.23;;;;;;;22.97;64.20;96523.91;5048010;28;20924;-71
2022/09/14 01:51:18;;;;;;;4.00;2.07;;;;;;;23.04;64.67;96526.41;5053777;28;20993;-70
2022/09/14 01:53:52;;;;;;;5.47;2.53;;;;;;;22.78;65.67;96526.09;5048181;28;20756;-71
2022/09/14 01:56:22;;;;;;;5.30;2.60;;;;;;;22.84;65.53;96527.75;5052194;28;20465;-70
2022/09/14 01:58:53;;;;;;;4.00;2.47;;;;;;;22.91;65.09;96532.91;5052154;28;21068;-71
2022/09/14 02:01:27;;;;;;;3.60;2.33;;;;;;;22.90;65.36;96530.50;5052231;28;20789;-73
2022/09/14 02:03:58;;;;;;;9.83;3.33;;;;;;;22.91;66.10;96521.44;5052325;28;20429;-71
2022/09/14 02:06:32;;;;;;;8.13;2.30;;;;;;;22.92;66.49;96526.53;5053863;28;20445;-70
2022/09/14 02:08:59;;;;;;;8.60;2.30;;;;;;;22.97;66.49;96539.13;5052304;28;20928;-70
2022/09/14 02:11:24;;;;;;;5.20;2.50;;;;;;;22.97;66.32;96541.81;5047902;28;20944;-71
2022/09/14 02:13:50;;;;;;;5.20;2.57;;;;;;;;;;5054674;28;20430;-71
2022/09/14 02:16:15;;;;;;;4.87;2.70;;;;;;;22.95;66.14;96543.91;5051817;28;20229;-70
2022/09/14 02:18:42;;;;;;;3.83;2.53;;;;;;;22.94;66.37;96545.78;5053052;28;20175;-71
2022/09/14 02:21:24;;;;;;;9.30;2.40;;;;;;;22.92;66.89;96541.75;5033506;28;20190;-69
2022/09/14 02:23:49;;;;;;;8.77;2.60;;;;;;;22.92;67.13;96533.75;5053406;28;20421;-71
2022/09/14 02:26:16;;;;;;;10.30;2.63;;;;;;;22.91;67.31;96527.56;5059118;28;20540;-70
2022/09/14 02:28:42;;;;;;;5.00;2.87;;;;;;;22.97;67.72;96536.47;5036074;28;20547;-70
2022/09/14 02:31:37;;;;;;;8.77;3.07;;;;;;;22.92;67.61;96533.75;5053605;28;20453;-73
2022/09/14 02:34:25;;;;;;;7.37;2.90;;;;;;;22.89;67.51;96550.25;5052902;28;20269;-70
2022/09/14 02:36:50;;;;;;;7.03;2.80;;;;;;;22.81;66.98;96548.81;5047163;28;20476;-70
2022/09/14 02:39:39;;;;;;;6.07;2.67;;;;;;;22.78;66.62;96544.78;5061168;28;20463;-71
2022/09/14 02:42:16;;;;;;;3.83;2.30;;;;;;;22.77;67.08;96543.16;5056143;28;20186;-71
2022/09/14 02:45:00;;;;;;;5.33;2.53;;;;;;;22.75;66.95;96534.59;5051347;28;20411;-72
2022/09/14 02:47:40;;;;;;;4.40;2.80;;;;;;;22.79;66.73;96533.06;5050935;28;20544;-70
2022/09/14 02:50:17;;;;;;;3.73;2.63;;;;;;;22.82;66.56;96534.41;5052572;28;20413;-70
2022/09/14 02:53:02;;;;;;;9.50;2.80;;;;;;;22.84;66.47;96533.09;5018503;28;20424;-70
2022/09/14 02:55:33;;;;;;;3.60;2.73;;;;;;;22.83;66.35;96522.66;5051621;28;20457;-71
2022/09/14 02:57:59;;;;;;;8.40;2.90;;;;;;;22.78;66.72;96517.25;5053847;28;20450;-72
2022/09/14 03:00:26;;;;;;;4.30;2.53;;;;;;;22.78;66.67;96515.41;5051935;28;20428;-72
2022/09/14 03:02:51;;;;;;;3.03;2.40;;;;;;;22.81;66.73;96506.09;5051346;28;20424;-71
2022/09/14 03:05:17;;;;;;;6.77;2.80;;;;;;;22.74;66.73;96500.91;5053495;28;20414;-70
2022/09/14 03:07:42;;;;;;;5.40;2.80;;;;;;;22.71;66.91;96506.75;5057974;28;20678;-69
2022/09/14 03:10:08;;;;;;;4.87;2.70;;;;;;;22.69;67.05;96508.84;5052408;28;20183;-70
2022/09/14 03:12:33;;;;;;;10.00;2.70;;;;;;;22.68;67.09;96500.06;5056482;28;20189;-69
2022/09/14 03:14:59;;;;;;;4.53;2.70;;;;;;;22.61;66.66;96498.63;5056193;28;20721;-70
2022/09/14 03:17:24;;;;;;;5.23;3.00;;;;;;;22.48;67.27;96502.47;5050275;28;20635;-71
2022/09/14 03:19:50;;;;;;;3.90;2.97;;;;;;;22.54;67.30;96496.13;5052444;28;20209;-71
2022/09/14 03:22:15;;;;;;;4.13;3.03;;;;;;;22.55;67.27;96501.22;5051825;28;20210;-70
2022/09/14 03:24:41;;;;;;;8.97;3.00;;;;;;;22.57;67.34;96489.47;5052402;28;20734;-71
2022/09/14 03:27:06;;;;;;;6.50;3.20;;;;;;;22.48;67.60;96487.22;5051115;28;20282;-70
2022/09/14 03:29:31;;;;;;;8.10;3.47;;;;;;;22.50;67.87;96484.31;5051987;28;20274;-71
2022/09/14 03:31:57;;;;;;;4.90;3.23;;;;;;;22.50;68.13;96478.97;5052075;28;20219;-70
2022/09/14 03:34:22;;;;;;;4.33;3.00;;;;;;;22.57;68.40;96476.94;5051340;28;20260;-70
2022/09/14 03:36:48;;;;;;;3.30;2.60;;;;;;;22.57;68.72;96476.94;5050828;28;20293;-71
2022/09/14 03:39:13;;;;;;;6.70;3.23;;;;;;;22.58;68.62;96477.75;5051782;28;20269;-72
2022/09/14 03:41:39;;;;;;;5.07;3.03;;;;;;;22.57;68.13;96468.13;5033921;28;20802;-72
2022/09/14 03:44:04;;;;;;;8.20;3.40;;;;;;;22.48;68.24;96465.09;5046897;28;20187;-70
2022/09/14 03:46:30;;;;;;;4.63;2.97;;;;;;;22.23;69.20;96467.13;5057370;28;20313;-70
2022/09/14 03:48:55;;;;;;;5.13;2.53;;;;;;;22.22;68.69;96457.50;5051078;28;20668;-70
2022/09/14 03:51:21;;;;;;;7.80;2.97;;;;;;;22.14;68.70;96454.44;5051037;28;20183;-71
2022/09/14 03:53:47;;;;;;;4.03;2.90;;;;;;;22.21;68.82;96449.75;5044780;28;20183;-71
2022/09/14 03:56:16;;;;;;;5.43;3.27;;;;;;;22.17;68.79;96443.28;5048701;28;20225;-70
2022/09/14 03:58:42;;;;;;;6.10;3.13;;;;;;;22.16;68.95;96447.00;5050970;28;20662;-70
2022/09/14 04:01:10;;;;;;;3.50;2.83;;;;;;;22.19;68.93;96447.31;5050625;28;20943;-70
2022/09/14 04:03:36;;;;;;;7.33;3.33;;;;;;;22.12;69.52;96441.34;5047467;28;20781;-70
2022/09/14 04:06:04;;;;;;;6.60;5.23;;;;;;;22.18;69.32;96437.69;5057463;28;20467;-70
2022/09/14 04:08:30;;;;;;;5.90;3.60;;;;;;;22.24;69.38;96438.59;5055828;28;20198;-72
2022/09/14 04:10:56;;;;;;;5.13;3.47;;;;;;;22.32;69.72;96437.31;5050668;28;20424;-71
2022/09/14 04:13:21;;;;;;;4.17;3.50;;;;;;;22.33;68.99;96431.75;5047740;28;20521;-70
2022/09/14 04:15:59;;;;;;;5.30;3.33;;;;;;;22.34;68.99;96422.72;5048884;28;20194;-70
2022/09/14 04:18:26;;;;;;;7.93;3.20;;;;;;;22.29;68.91;96425.28;5044433;28;20190;-71
2022/09/14 04:21:09;;;;;;;8.53;3.33;;;;;;;22.24;69.27;96434.03;5052132;28;20421;-71
2022/09/14 04:23:35;;;;;;;5.90;3.20;;;;;;;22.30;69.38;96442.13;5041830;28;20425;-70
2022/09/14 04:26:01;;;;;;;4.97;3.00;;;;;;;22.16;69.75;96434.47;5047213;28;20835;-70
2022/09/14 04:28:26;;;;;;;6.37;3.10;;;;;;;22.09;70.06;96444.50;5046304;28;20206;-70
2022/09/14 04:31:01;;;;;;;4.83;3.00;;;;;;;22.11;69.88;96438.94;5044584;28;20274;-70
2022/09/14 04:33:31;;;;;;;7.40;3.20;;;;;;;22.12;69.91;96445.84;5049824;28;20664;-70
2022/09/14 04:36:01;;;;;;;4.50;3.37;;;;;;;22.13;70.06;96444.81;5048340;28;20504;-70
2022/09/14 04:38:27;;;;;;;4.63;3.00;;;;;;;22.14;70.09;96439.25;5047950;28;21086;-70
2022/09/14 04:40:53;;;;;;;6.83;3.30;;;;;;;22.10;70.04;96443.44;5050547;28;20461;-70
2022/09/14 04:43:19;;;;;;;9.30;2.80;;;;;;;22.09;70.26;96447.97;5053536;28;20468;-70
2022/09/14 04:45:44;;;;;;;3.87;3.10;;;;;;;22.10;70.49;96438.09;5048743;28;20179;-70
2022/09/14 04:48:10;;;;;;;3.50;2.80;;;;;;;22.12;70.22;96435.19;5049257;28;20209;-70
2022/09/14 04:50:35;;;;;;;6.30;3.83;;;;;;;22.07;70.62;96427.91;5050147;28;20191;-70
2022/09/14 04:53:01;;;;;;;5.37;3.40;;;;;;;22.13;70.41;96429.63;5043595;28;20186;-69
2022/09/14 04:55:26;;;;;;;6.57;3.60;;;;;;;22.17;70.35;96432.59;5049668;28;20290;-72
2022/09/14 04:57:52;;;;;;;6.30;2.90;;;;;;;22.19;70.59;96441.97;5049876;28;20202;-72
2022/09/14 05:00:17;;;;;;;3.33;2.80;;;;;;;22.16;70.59;96445.16;5049653;28;20675;-70
2022/09/14 05:02:43;;;;;;;3.90;3.50;;;;;;;22.19;70.68;96439.28;5045763;28;20182;-71
2022/09/14 05:05:08;;;;;;;5.97;3.13;;;;;;;22.20;70.31;96434.78;5050300;28;20258;-71
2022/09/14 05:07:34;;;;;;;8.50;3.70;;;;;;;22.24;70.52;96431.38;5056925;28;20198;-71
2022/09/14 05:09:59;;;;;;;3.93;3.47;;;;;;;22.30;70.31;96428.78;5048786;28;20258;-70
2022/09/14 05:12:25;;;;;;;4.60;3.30;;;;;;;22.20;70.37;96422.25;5047766;28;20183;-70
2022/09/14 05:14:50;;;;;;;5.60;3.20;;;;;;;22.10;70.91;96432.78;5048616;28;20750;-71
2022/09/14 05:17:16;;;;;;;4.10;3.70;;;;;;;22.16;71.00;96431.81;5051662;28;20597;-71
2022/09/14 05:19:41;;;;;;;5.07;3.50;;;;;;;22.28;70.59;96428.22;5054339;28;20175;-72
2022/09/14 05:22:07;;;;;;;4.20;3.47;;;;;;;22.25;71.08;96429.50;5049237;28;20218;-71
2022/09/14 05:24:33;;;;;;;4.60;3.57;;;;;;;22.29;71.24;96440.50;5053927;28;20193;-72
2022/09/14 05:26:58;;;;;;;4.27;3.53;;;;;;;22.19;72.15;96439.28;5053010;28;20203;-71
2022/09/14 05:29:24;;;;;;;6.07;3.87;;;;;;;22.19;72.01;96455.31;5051233;28;20503;-71
2022/09/14 05:31:50;;;;;;;6.33;4.30;;;;;;;22.36;71.62;96455.31;5054305;28;20273;-69
2022/09/14 05:34:15;;;;;;;5.80;4.03;;;;;;;22.45;71.30;96453.03;5053538;28;20266;-72
2022/09/14 05:36:41;;;;;;;7.40;3.73;;;;;;;22.51;71.48;96462.72;5048082;28;20682;-71
2022/09/14 05:39:07;;;;;;;3.97;3.43;;;;;;;22.59;71.18;96469.50;5047783;28;20292;-70
2022/09/14 05:41:32;;;;;;;3.90;3.60;;;;;;;22.58;71.32;96465.22;5044117;28;20188;-72
2022/09/14 05:43:58;;;;;;;5.10;3.47;;;;;;;22.55;71.48;96465.69;5044752;28;20449;-72
2022/09/14 05:46:24;;;;;;;8.47;4.37;;;;;;;22.48;71.77;96460.53;5047862;28;20209;-72
2022/09/14 05:48:50;;;;;;;6.93;3.40;;;;;;;22.61;71.62;96463.91;5058154;28;20919;-70
2022/09/14 05:51:21;;;;;;;9.13;3.50;;;;;;;22.48;72.17;96457.06;5046189;28;20267;-73
2022/09/14 05:53:50;;;;;;;6.20;4.30;;;;;;;22.63;71.52;96457.25;5043832;28;21665;-72
2022/09/14 05:56:16;;;;;;;5.10;3.50;;;;;;;22.64;71.57;96452.75;5043618;28;20474;-71
2022/09/14 05:58:42;;;;;;;9.03;3.97;;;;;;;22.68;71.46;96443.19;5040770;28;20426;-70
2022/09/14 06:01:12;;;;;;;9.90;4.33;;;;;;;22.77;71.27;96440.84;5051540;28;20489;-69
2022/09/14 06:03:38;;;;;;;5.97;3.50;;;;;;;22.80;71.17;96430.50;5054314;28;20770;-68
2022/09/14 06:06:05;;;;;;;8.43;4.20;;;;;;;22.86;71.00;96450.88;5052580;28;20443;-72
2022/09/14 06:08:31;;;;;;;4.33;3.90;;;;;;;22.82;71.23;96455.06;5059549;28;20413;-71
2022/09/14 06:11:21;;;;;;;5.77;3.60;;;;;;;22.89;70.99;96459.44;5043165;28;20847;-70
2022/09/14 06:13:48;;;;;;;6.77;3.90;;;;;;;22.95;70.85;96453.06;5053329;28;20459;-70
2022/09/14 06:16:15;;;;;;;8.77;4.03;;;;;;;22.97;70.84;96457.13;5051991;28;20473;-70
2022/09/14 06:18:42;;;;;;;6.90;3.70;;;;;;;23.03;70.92;96460.66;5058731;28;20440;-71
2022/09/14 06:21:09;;;;;;;11.53;3.70;;;;;;;23.11;70.96;96468.22;5041044;28;20431;-70
2022/09/14 06:23:35;;;;;;;6.67;3.67;;;;;;;23.16;70.53;96470.97;5068837;28;20477;-70
2022/09/14 06:26:03;;;;;;;13.50;4.00;;;;;;;23.15;70.59;96474.69;5064054;28;20432;-70
2022/09/14 06:28:29;;;;;;;7.83;3.70;;;;;;;23.21;70.42;96480.09;5060966;28;20508;-71
2022/09/14 06:30:55;;;;;;;4.37;3.97;;;;;;;23.25;70.33;96473.22;5057272;28;20976;-71
2022/09/14 06:33:20;;;;;;;6.33;3.60;;;;;;;23.30;70.25;96467.94;5061218;28;20226;-71
2022/09/14 06:36:00;;;;;;;9.57;4.10;;;;;;;23.29;70.67;96474.34;5043084;28;20462;-72
2022/09/14 06:38:26;;;;;;;5.30;3.70;;;;;;;23.33;70.28;96475.41;5038906;28;20328;-70
2022/09/14 06:40:56;;;;;;;6.63;3.53;;;;;;;23.20;70.92;96468.63;5036806;28;20426;-69
2022/09/14 06:43:22;;;;;;;4.53;3.67;;;;;;;23.28;70.88;96478.06;5043855;28;20418;-70
2022/09/14 06:45:58;;;;;;;7.30;4.40;;;;;;;23.21;71.44;96474.75;5042375;28;20430;-71
2022/09/14 06:48:24;;;;;;;7.07;3.90;;;;;;;23.28;71.28;96470.03;5053407;28;20432;-70
2022/09/14 06:50:50;;;;;;;5.93;3.63;;;;;;;23.28;71.46;96462.81;5066620;28;20478;-71
2022/09/14 06:53:16;;;;;;;4.00;3.60;;;;;;;23.31;71.14;96461.53;5058282;28;20421;-70
2022/09/14 06:55:43;;;;;;;6.87;4.07;;;;;;;23.38;70.81;96456.78;5054731;28;20625;-71
2022/09/14 06:58:09;;;;;;;9.00;6.03;;;;;;;23.38;71.30;96446.09;5060677;28;20198;-70
2022/09/14 07:00:35;;;;;;;7.93;4.23;;;;;;;23.44;71.13;96460.31;5046658;28;20426;-70
2022/09/14 07:03:00;;;;;;;5.53;3.57;;;;;;;23.47;70.87;96460.59;5055782;28;20186;-70
2022/09/14 07:05:26;;;;;;;5.23;3.90;;;;;;;23.49;70.78;96468.38;5052785;28;20837;-72
2022/09/14 07:07:52;;;;;;;3.60;3.30;;;;;;;23.54;70.77;96471.09;5054512;28;20210;-71
2022/09/14 07:10:17;;;;;;;4.47;3.50;;;;;;;23.58;70.81;96469.53;5056848;28;20190;-71
2022/09/14 07:12:43;;;;;;;7.60;3.20;;;;;;;23.61;70.92;96478.91;5055375;28;20646;-70
2022/09/14 07:15:09;;;;;;;5.00;3.20;;;;;;;23.76;70.24;96483.56;5062818;28;20190;-70
2022/09/14 07:17:37;;;;;;;7.40;3.67;;;;;;;23.94;70.54;96482.41;5048393;28;20204;-70
2022/09/14 07:20:04;;;;;;;4.57;3.80;;;;;;;24.06;70.17;96477.69;5057988;28;20638;-70
2022/09/14 07:22:33;;;;;;;5.77;3.13;;;;;;;24.19;69.32;96486.34;5037301;28;21004;-71
2022/09/14 07:24:58;;;;;;;4.00;3.10;;;;;;;24.23;69.24;96485.56;5036801;28;20918;-70
2022/09/14 07:27:24;;;;;;;3.77;3.47;;;;;;;24.26;68.82;96489.59;5040093;28;20459;-70
2022/09/14 07:29:49;;;;;;;4.70;3.37;;;;;;;24.28;68.67;96489.34;5038624;28;20597;-72
2022/09/14 07:32:15;;;;;;;7.67;3.43;;;;;;;24.35;68.76;96473.88;5039690;28;20211;-70
2022/09/14 07:34:40;;;;;;;17.87;4.20;;;;;;;24.47;68.51;96463.75;5039860;28;20289;-70
2022/09/14 07:37:06;;;;;;;5.30;3.00;;;;;;;24.61;68.17;96476.69;5042890;28;20219;-71
2022/09/14 07:39:31;;;;;;;4.43;3.00;;;;;;;24.62;67.31;96481.75;5059565;28;20269;-71
2022/09/14 07:41:56;;;;;;;6.23;2.97;;;;;;;24.75;67.27;96490.44;5042326;28;20229;-70
2022/09/14 07:44:22;;;;;;;3.10;2.90;;;;;;;24.96;66.48;96484.06;5045015;28;20214;-71
2022/09/14 07:46:47;;;;;;;4.60;3.40;;;;;;;25.18;66.92;96484.94;5034566;28;20294;-70
2022/09/14 07:49:14;;;;;;;5.30;2.93;;;;;;;25.35;65.68;96484.72;5036006;28;20184;-70
2022/09/14 07:51:40;;;;;;;6.20;3.03;;;;;;;25.43;65.31;96487.72;5036467;28;20218;-69
2022/09/14 07:54:07;;;;;;;4.47;3.10;;;;;;;25.52;64.81;96490.69;5041411;28;20830;-71
2022/09/14 07:56:33;;;;;;;10.27;3.40;;;;;;;25.76;64.00;96498.22;5036795;28;20298;-70
2022/09/14 07:58:59;;;;;;;4.80;2.57;;;;;;;25.90;62.99;96511.91;5036621;28;20433;-71
2022/09/14 08:01:28;;;;;;;6.57;3.23;;;;;;;26.12;63.17;96498.25;5040585;28;20425;-69
2022/09/14 08:03:54;;;;;;;8.43;4.00;;;;;;;26.34;62.19;96497.94;5036419;28;20180;-69
2022/09/14 08:06:22;;;;;;;3.43;2.40;;;;;;;26.34;60.54;96497.94;5049373;28;20444;-71
2022/09/14 08:08:49;;;;;;;10.27;3.07;;;;;;;26.60;60.52;96510.50;5044600;28;20226;-71
2022/09/14 08:11:18;;;;;;;5.80;2.80;;;;;;;26.85;60.08;96506.16;5048794;28;20426;-70
2022/09/14 08:13:48;;;;;;;4.23;2.50;;;;;;;27.01;59.14;96507.72;5043798;28;20454;-69
2022/09/14 08:16:14;;;;;;;3.87;2.70;;;;;;;27.21;58.50;96501.44;5042530;28;20720;-71
2022/09/14 08:18:40;;;;;;;7.40;2.50;;;;;;;27.25;57.41;96507.06;5051443;28;20434;-71
2022/09/14 08:21:12;;;;;;;6.17;2.43;;;;;;;27.35;56.49;96508.91;5034346;28;20242;-71
2022/09/14 08:23:38;;;;;;;3.57;2.80;;;;;;;27.48;56.54;96518.25;5035051;28;20199;-71
2022/09/14 08:26:05;;;;;;;4.40;2.27;;;;;;;27.54;56.09;96519.84;5033561;28;20483;-71
2022/09/14 08:28:31;;;;;;;7.97;2.60;;;;;;;27.48;56.72;96537.09;5055315;28;20456;-71
2022/09/14 08:31:03;;;;;;;4.83;2.60;;;;;;;27.42;56.64;96538.97;5058132;28;20417;-71
2022/09/14 08:33:30;;;;;;;5.67;2.40;;;;;;;27.48;56.60;96547.84;5049375;28;20179;-71
2022/09/14 08:35:55;;;;;;;5.60;2.80;;;;;;;27.50;56.43;96546.50;5056670;28;20465;-72
2022/09/14 08:38:21;;;;;;;11.17;2.83;;;;;;;27.46;55.81;96544.66;5055109;28;20425;-71
2022/09/14 08:40:47;;;;;;;7.90;2.30;;;;;;;27.42;56.55;96555.94;5062115;28;20240;-70
2022/09/14 08:43:13;;;;;;;6.97;2.30;;;;;;;27.23;56.72;96553.06;5051808;28;20193;-71
2022/09/14 08:45:42;;;;;;;4.77;3.13;;;;;;;27.00;56.78;96570.63;5043620;28;20417;-70
2022/09/14 08:48:22;;;;;;;6.10;2.60;;;;;;;27.31;56.84;96577.75;5038035;28;20446;-70
2022/09/14 08:50:52;;;;;;;4.03;2.50;;;;;;;27.27;56.62;96575.66;5047427;28;20429;-72
2022/09/14 08:53:23;;;;;;;5.13;2.50;;;;;;;27.08;57.13;96572.75;5043003;28;20424;-70
2022/09/14 08:55:53;;;;;;;3.73;2.43;;;;;;;27.27;56.63;96558.69;5049759;28;20473;-71
2022/09/14 08:58:26;;;;;;;5.20;2.60;;;;;;;27.43;56.69;96557.53;5039966;28;20538;-70
2022/09/14 09:00:57;;;;;;;2.57;2.37;;;;;;;27.59;56.02;96557.50;5046671;28;20434;-71
2022/09/14 09:03:50;;;;;;;6.33;2.40;;;;;;;27.74;55.46;96551.22;5032946;28;20422;-71
2022/09/14 09:06:25;;;;;;;5.43;2.60;;;;;;;28.05;54.49;96557.19;5031857;28;20422;-71
2022/09/14 09:09:03;;;;;;;7.73;2.47;;;;;;;28.36;52.79;96556.13;5045200;28;20484;-71
2022/09/14 09:11:38;;;;;;;6.13;2.33;;;;;;;28.66;53.01;96544.25;5034259;28;20412;-71
2022/09/14 09:14:19;;;;;;;5.53;2.50;;;;;;;28.97;52.16;96551.22;5040414;28;20425;-71
2022/09/14 09:16:46;;;;;;;3.17;2.03;;;;;;;28.88;51.70;96561.06;5036980;28;20462;-71
2022/09/14 09:19:35;;;;;;;4.33;2.17;;;;;;;29.23;50.13;96559.84;5038010;28;20449;-71
2022/09/14 09:22:04;;;;;;;6.43;2.40;;;;;;;29.37;50.01;96551.84;5039998;28;20430;-71
2022/09/14 09:24:41;;;;;;;7.23;2.77;;;;;;;29.59;49.54;96558.56;5040953;28;20429;-70
2022/09/14 09:27:12;;;;;;;2.67;2.00;;;;;;;29.84;48.04;96554.72;5046797;28;20452;-71
2022/09/14 09:29:37;;;;;;;4.80;2.17;;;;;;;30.05;47.91;96554.41;5047387;28;20414;-71
2022/09/14 09:32:04;;;;;;;2.60;2.10;;;;;;;30.17;47.46;96549.34;5047489;28;20939;-72
2022/09/14 09:34:30;;;;;;;4.50;2.00;;;;;;;30.47;47.13;96549.13;5047220;28;20176;-71
2022/09/14 09:36:56;;;;;;;3.60;2.20;;;;;;;30.70;45.72;96535.75;5042235;28;20469;-71
2022/09/14 09:39:24;;;;;;;3.33;1.97;;;;;;;30.86;46.22;96533.56;5047178;28;20199;-71
2022/09/14 09:41:50;;;;;;;5.77;1.70;;;;;;;31.00;45.25;96537.06;5050057;28;20259;-71
2022/09/14 09:44:15;;;;;;;5.23;1.90;;;;;;;30.59;45.62;96525.13;5047045;28;20472;-72
2022/09/14 09:46:50;;;;;;;3.00;1.97;;;;;;;30.94;44.97;96524.75;5046934;28;20215;-70
2022/09/14 09:49:20;;;;;;;8.13;2.27;;;;;;;30.92;44.06;96510.72;5045430;28;20301;-70
2022/09/14 09:51:46;;;;;;;3.70;2.20;;;;;;;31.01;43.65;96508.91;5046371;28;20445;-71
2022/09/14 09:54:11;;;;;;;4.23;1.50;;;;;;;30.92;44.41;96514.25;5045834;28;20429;-70
2022/09/14 09:56:40;;;;;;;5.10;2.20;;;;;;;30.85;44.12;96508.41;5046546;28;20226;-70
2022/09/14 09:59:31;;;;;;;5.33;2.20;;;;;;;30.84;44.25;96492.50;5045642;28;20194;-70
2022/09/14 10:02:16;;;;;;;2.53;2.30;;;;;;;31.01;44.94;96495.38;5046081;28;20483;-71
2022/09/14 10:05:08;;;;;;;5.53;1.90;;;;;;;31.10;44.27;96484.66;5050728;28;20474;-71
2022/09/14 10:07:38;;;;;;;2.73;2.00;;;;;;;30.75;43.59;96487.00;5025493;28;20498;-71
2022/09/14 10:10:04;;;;;;;2.70;1.77;;;;;;;30.68;44.89;96478.50;5050681;28;20433;-71
2022/09/14 10:12:29;;;;;;;4.93;2.00;;;;;;;30.84;44.31;96489.81;5048101;28;20424;-73
2022/09/14 10:15:17;;;;;;;5.30;2.13;;;;;;;30.78;44.38;96481.78;5049349;28;20247;-72
2022/09/14 10:18:10;;;;;;;6.80;1.77;;;;;;;30.74;43.37;96478.09;5041100;28;20294;-70
2022/09/14 10:20:52;;;;;;;3.60;1.97;;;;;;;30.57;43.46;96488.69;5049459;28;20929;-72
2022/09/14 10:23:17;;;;;;;6.83;2.07;;;;;;;30.52;44.47;96472.53;5038348;28;20421;-70
2022/09/14 10:25:46;;;;;;;7.87;2.07;;;;;;;30.43;44.17;96470.53;5040976;28;20414;-72
2022/09/14 10:28:21;;;;;;;2.77;1.73;;;;;;;30.21;44.62;96467.72;5043586;28;20211;-71
2022/09/14 10:30:56;;;;;;;2.97;2.27;;;;;;;30.35;45.05;96449.63;5043743;28;20431;-71
2022/09/14 10:33:22;;;;;;;4.07;1.93;;;;;;;30.38;44.32;96448.22;5048770;28;20419;-71
2022/09/14 10:36:12;;;;;;;4.80;2.07;;;;;;;30.22;44.76;96442.31;5046491;28;20462;-70
2022/09/14 10:39:10;;;;;;;10.30;2.30;;;;;;;30.27;44.93;96436.78;5039341;28;20935;-71
2022/09/14 10:41:57;;;;;;;4.23;2.00;;;;;;;30.22;43.96;96445.00;5045119;28;20414;-70
2022/09/14 10:44:37;;;;;;;3.17;1.80;;;;;;;30.17;43.41;96438.59;5029838;28;20425;-71
2022/09/14 10:47:15;;;;;;;4.10;1.67;;;;;;;30.15;44.22;96435.38;5035535;28;20458;-71
2022/09/14 10:49:59;;;;;;;6.73;1.90;;;;;;;29.97;43.76;96428.16;5028360;28;20947;-72
2022/09/14 10:52:46;;;;;;;6.20;1.80;;;;;;;29.97;44.30;96423.56;5044222;28;20421;-71
2022/09/14 10:55:30;;;;;;;3.60;1.80;;;;;;;29.97;44.37;96411.97;5041144;28;20463;-70
2022/09/14 10:58:08;;;;;;;3.30;1.80;;;;;;;29.93;44.56;96405.50;5030887;28;20878;-72
2022/09/14 11:00:59;;;;;;;5.83;1.80;;;;;;;30.05;44.75;96408.56;5042637;28;20516;-71
2022/09/14 11:03:59;;;;;;;3.50;1.87;;;;;;;29.93;45.49;96394.72;5044061;28;20786;-71
2022/09/14 11:06:30;;;;;;;3.10;1.80;;;;;;;30.12;45.76;96391.97;5040608;28;20896;-72
2022/09/14 11:09:08;;;;;;;5.37;1.93;;;;;;;30.18;45.02;96391.56;5046820;28;20483;-71
2022/09/14 11:12:03;;;;;;;5.80;2.03;;;;;;;30.40;44.26;96392.75;5043170;28;20429;-72
2022/09/14 11:14:48;;;;;;;2.70;2.00;;;;;;;30.74;43.99;96391.59;5021333;28;20970;-72
2022/09/14 11:17:33;;;;;;;7.23;2.20;;;;;;;30.86;42.92;96392.97;5037276;28;20450;-72
2022/09/14 11:20:14;;;;;;;7.20;2.23;;;;;;;31.01;43.27;96395.31;5044505;28;20502;-73
2022/09/14 11:22:56;;;;;;;6.50;2.23;;;;;;;31.14;41.47;96393.72;5043810;28;20422;-71
2022/09/14 11:25:41;;;;;;;4.07;1.90;;;;;;;31.38;41.37;96382.56;5049137;28;20488;-72
2022/09/14 11:28:13;;;;;;;3.33;1.93;;;;;;;31.62;41.54;96378.78;5047077;28;21124;-72
2022/09/14 11:30:43;;;;;;;2.67;1.70;;;;;;;31.82;40.61;96382.88;5043562;28;20484;-71
2022/09/14 11:33:15;;;;;;;5.57;1.50;;;;;;;31.63;40.35;96384.97;5039811;28;20974;-71
2022/09/14 11:35:42;;;;;;;3.77;1.53;;;;;;;31.80;40.56;96381.59;5040556;28;20489;-71
2022/09/14 11:38:11;;;;;;;9.40;1.80;;;;;;;31.80;39.83;96373.47;5038380;28;20456;-72
2022/09/14 11:41:26;;;;;;;3.23;1.53;;;;;;;31.73;39.53;96370.41;5049054;28;20895;-73
2022/09/14 11:44:05;;;;;;;4.50;1.70;;;;;;;31.83;39.35;96364.72;5044962;28;20937;-71
2022/09/14 11:46:41;;;;;;;2.90;1.30;;;;;;;31.74;38.57;96372.00;5041364;28;20468;-71
2022/09/14 11:49:26;;;;;;;4.10;1.50;;;;;;;31.88;38.08;96372.72;5036098;28;20517;-71